createdAt,value
2023-03-21T00:00:40.148Z,4.04
2023-03-21T00:03:06.474Z,4.12
2023-03-21T00:05:32.857Z,3.58
2023-03-21T00:08:01.118Z,3.74
2023-03-21T00:10:39.806Z,3.85
2023-03-21T00:13:09.238Z,4.00
2023-03-21T00:15:42.576Z,3.81
2023-03-21T00:18:14.856Z,4.18
2023-03-21T00:20:41.172Z,4.43
2023-03-21T00:23:07.540Z,4.24
2023-03-21T00:25:33.879Z,3.82
2023-03-21T00:28:08.059Z,3.81
2023-03-21T00:30:34.972Z,4.24
2023-03-21T00:33:05.949Z,4.19
2023-03-21T00:36:02.201Z,4.08
2023-03-21T00:38:24.792Z,4.29
2023-03-21T00:40:51.202Z,4.03
2023-03-21T00:43:17.558Z,3.99
2023-03-21T00:45:43.875Z,4.13
2023-03-21T00:48:10.230Z,4.11
2023-03-21T00:50:36.553Z,3.91
2023-03-21T00:53:02.884Z,3.90
2023-03-21T00:55:29.200Z,4.04
2023-03-21T00:58:01.434Z,4.21
2023-03-21T01:00:28.411Z,4.24
2023-03-21T01:03:00.219Z,4.25
2023-03-21T01:05:27.722Z,4.00
2023-03-21T01:07:54.085Z,4.51
2023-03-21T01:10:20.401Z,4.17
2023-03-21T01:12:46.719Z,4.11
2023-03-21T01:15:13.027Z,4.11
2023-03-21T01:17:39.356Z,4.31
2023-03-21T01:20:05.668Z,4.33
2023-03-21T01:22:31.997Z,4.48
2023-03-21T01:25:08.786Z,4.65
2023-03-21T01:27:44.650Z,4.48
2023-03-21T01:30:19.125Z,4.56
2023-03-21T01:32:46.785Z,4.39
2023-03-21T01:35:13.111Z,4.38
2023-03-21T01:37:39.439Z,4.14
2023-03-21T01:40:05.762Z,4.21
2023-03-21T01:42:32.143Z,3.98
2023-03-21T01:44:58.451Z,4.17
2023-03-21T01:47:24.766Z,4.25
2023-03-21T01:49:51.128Z,4.44
2023-03-21T01:52:29.795Z,4.06
2023-03-21T01:55:00.138Z,4.15
2023-03-21T01:57:32.488Z,4.30
2023-03-21T02:00:01.937Z,4.11
2023-03-21T02:02:28.274Z,4.14
2023-03-21T02:04:54.580Z,3.97
2023-03-21T02:07:20.886Z,3.94
2023-03-21T02:09:47.200Z,3.85
2023-03-21T02:12:13.509Z,3.65
2023-03-21T02:14:39.827Z,3.39
2023-03-21T02:17:06.152Z,3.29
2023-03-21T02:19:37.300Z,2.99
2023-03-21T02:22:07.906Z,2.96
2023-03-21T02:24:34.235Z,2.81
2023-03-21T02:27:04.312Z,2.83
2023-03-21T02:29:31.065Z,2.96
2023-03-21T02:32:03.471Z,3.59
2023-03-21T02:34:39.308Z,3.67
2023-03-21T02:39:49.754Z,3.13
2023-03-21T02:42:16.074Z,2.60
2023-03-21T02:44:42.400Z,2.73
2023-03-21T02:47:08.796Z,2.80
2023-03-21T02:49:35.146Z,2.92
2023-03-21T02:52:12.277Z,2.78
2023-03-21T02:54:47.854Z,2.62
2023-03-21T02:57:14.799Z,2.71
2023-03-21T02:59:51.770Z,2.83
2023-03-21T03:02:20.037Z,2.42
2023-03-21T03:04:46.344Z,2.69
2023-03-21T03:07:12.706Z,2.63
2023-03-21T03:09:39.035Z,2.87
2023-03-21T03:12:05.349Z,2.90
2023-03-21T03:14:46.816Z,3.01
2023-03-21T03:17:16.080Z,3.19
2023-03-21T03:19:50.015Z,3.28
2023-03-21T03:22:17.024Z,3.23
2023-03-21T03:24:43.470Z,3.14
2023-03-21T03:27:09.799Z,3.44
2023-03-21T03:29:36.119Z,3.53
2023-03-21T03:32:02.493Z,3.86
2023-03-21T03:34:28.825Z,3.72
2023-03-21T03:36:55.171Z,3.64
2023-03-21T03:39:21.514Z,3.69
2023-03-21T03:42:07.892Z,3.88
2023-03-21T03:44:34.106Z,3.94
2023-03-21T03:47:00.398Z,3.81
2023-03-21T03:49:26.702Z,3.68
2023-03-21T03:51:53.025Z,3.50
2023-03-21T03:54:19.347Z,3.67
2023-03-21T03:56:45.668Z,3.62
2023-03-21T03:59:12.021Z,3.72
2023-03-21T04:01:38.378Z,3.74
2023-03-21T04:04:12.949Z,3.55
2023-03-21T04:06:39.751Z,3.43
2023-03-21T04:09:18.551Z,3.27
2023-03-21T04:11:46.676Z,3.41
2023-03-21T04:14:12.995Z,3.54
2023-03-21T04:16:39.366Z,3.28
2023-03-21T04:19:05.737Z,3.19
2023-03-21T04:21:32.048Z,3.27
2023-03-21T04:23:58.351Z,3.24
2023-03-21T04:26:24.660Z,3.14
2023-03-21T04:28:50.977Z,2.91
2023-03-21T04:31:25.509Z,3.12
2023-03-21T04:33:52.596Z,3.26
2023-03-21T04:36:18.937Z,3.08
2023-03-21T04:38:45.266Z,3.23
2023-03-21T04:41:11.586Z,3.18
2023-03-21T04:43:37.918Z,3.38
2023-03-21T04:46:04.270Z,3.09
2023-03-21T04:48:30.616Z,3.10
2023-03-21T04:50:56.942Z,3.10
2023-03-21T04:53:23.254Z,3.06
2023-03-21T04:55:52.861Z,3.06
2023-03-21T04:58:20.524Z,3.13
2023-03-21T05:00:46.881Z,3.03
2023-03-21T05:03:13.203Z,3.08
2023-03-21T05:05:39.862Z,3.07
2023-03-21T05:08:06.311Z,3.00
2023-03-21T05:10:32.619Z,2.95
2023-03-21T05:12:58.931Z,2.92
2023-03-21T05:15:25.241Z,2.69
2023-03-21T05:17:51.563Z,2.71
2023-03-21T05:20:17.903Z,2.85
2023-03-21T05:22:44.206Z,3.05
2023-03-21T05:25:10.576Z,2.87
2023-03-21T05:27:36.882Z,3.17
2023-03-21T05:30:03.223Z,3.23
2023-03-21T05:32:29.552Z,3.23
2023-03-21T05:34:55.876Z,3.14
2023-03-21T05:37:22.203Z,3.09
2023-03-21T05:39:48.522Z,3.12
2023-03-21T05:42:14.850Z,3.21
2023-03-21T05:44:41.176Z,3.27
2023-03-21T05:47:07.511Z,3.33
2023-03-21T05:49:33.858Z,3.16
2023-03-21T05:52:00.165Z,3.15
2023-03-21T05:54:26.515Z,3.70
2023-03-21T05:56:52.845Z,3.42
2023-03-21T05:59:19.146Z,3.67
2023-03-21T06:01:45.464Z,3.83
2023-03-21T06:04:11.830Z,3.74
2023-03-21T06:06:38.169Z,3.70
2023-03-21T06:09:04.482Z,3.92
2023-03-21T06:11:30.816Z,3.84
2023-03-21T06:13:57.127Z,3.96
2023-03-21T06:16:23.492Z,3.72
2023-03-21T06:18:49.865Z,4.02
2023-03-21T06:21:16.199Z,3.99
2023-03-21T06:23:42.521Z,3.96
2023-03-21T06:26:08.853Z,4.07
2023-03-21T06:28:35.175Z,4.07
2023-03-21T06:31:01.548Z,4.15
2023-03-21T06:33:27.870Z,4.14
2023-03-21T06:35:54.298Z,4.16
2023-03-21T06:38:20.693Z,4.20
2023-03-21T06:40:47.020Z,4.17
2023-03-21T06:43:13.339Z,4.31
2023-03-21T06:45:39.763Z,4.30
2023-03-21T06:48:08.117Z,4.47
2023-03-21T06:50:35.544Z,4.23
2023-03-21T06:53:01.868Z,4.24
2023-03-21T06:55:28.176Z,4.39
2023-03-21T06:57:54.506Z,4.22
2023-03-21T07:00:20.815Z,4.17
2023-03-21T07:02:48.773Z,3.78
2023-03-21T07:05:16.958Z,3.96
2023-03-21T07:07:43.285Z,3.98
2023-03-21T07:10:09.609Z,4.29
2023-03-21T07:12:35.956Z,4.08
2023-03-21T07:15:02.299Z,4.34
2023-03-21T07:17:28.608Z,4.52
2023-03-21T07:19:54.937Z,4.88
2023-03-21T07:22:21.256Z,5.16
2023-03-21T07:24:55.891Z,5.10
2023-03-21T07:27:28.897Z,4.86
2023-03-21T07:29:55.223Z,4.99
2023-03-21T07:32:21.561Z,4.71
2023-03-21T07:34:47.882Z,5.17
2023-03-21T07:37:14.206Z,5.40
2023-03-21T07:39:40.538Z,5.15
2023-03-21T07:42:06.877Z,5.16
2023-03-21T07:44:33.190Z,5.11
2023-03-21T07:46:59.585Z,5.35
2023-03-21T07:49:25.901Z,5.23
2023-03-21T07:51:52.204Z,5.24
2023-03-21T07:54:18.515Z,5.24
2023-03-21T07:56:44.825Z,4.98
2023-03-21T07:59:11.128Z,4.56
2023-03-21T08:01:37.466Z,4.55
2023-03-21T08:04:03.788Z,4.59
2023-03-21T08:06:30.177Z,4.36
2023-03-21T08:08:56.480Z,4.13
2023-03-21T08:11:22.803Z,4.09
2023-03-21T08:13:49.181Z,4.24
2023-03-21T08:16:15.554Z,3.99
2023-03-21T08:18:41.894Z,4.05
2023-03-21T08:21:09.656Z,4.11
2023-03-21T08:23:36.065Z,4.41
2023-03-21T08:26:02.396Z,4.36
2023-03-21T08:28:28.729Z,4.07
2023-03-21T08:30:55.092Z,4.36
2023-03-21T08:33:21.430Z,4.34
2023-03-21T08:35:47.808Z,4.40
2023-03-21T08:38:14.149Z,4.37
2023-03-21T08:40:40.482Z,4.46
2023-03-21T08:43:06.796Z,3.96
2023-03-21T08:45:33.106Z,4.26
2023-03-21T08:47:59.482Z,4.87
2023-03-21T08:50:25.873Z,4.61
2023-03-21T08:52:52.224Z,4.91
2023-03-21T08:55:18.573Z,5.07
2023-03-21T08:57:44.913Z,5.22
2023-03-21T09:00:11.251Z,5.09
2023-03-21T09:02:37.582Z,5.37
2023-03-21T09:05:03.919Z,5.73
2023-03-21T09:07:30.231Z,5.52
2023-03-21T09:10:15.009Z,5.75
2023-03-21T09:12:42.830Z,5.22
2023-03-21T09:15:09.155Z,5.38
2023-03-21T09:17:35.469Z,5.21
2023-03-21T09:20:01.828Z,5.40
2023-03-21T09:22:28.161Z,5.45
2023-03-21T09:24:54.500Z,5.80
2023-03-21T09:27:20.855Z,5.72
2023-03-21T09:29:47.170Z,5.44
2023-03-21T09:32:13.505Z,5.85
2023-03-21T09:34:39.827Z,5.67
2023-03-21T09:37:06.150Z,6.52
2023-03-21T09:39:32.470Z,6.10
2023-03-21T09:41:58.787Z,6.13
2023-03-21T09:44:25.097Z,6.07
2023-03-21T09:46:51.460Z,6.20
2023-03-21T09:49:17.779Z,6.39
2023-03-21T09:51:45.162Z,6.51
2023-03-21T09:54:11.470Z,6.70
2023-03-21T09:56:37.803Z,6.86
2023-03-21T09:59:04.125Z,7.01
2023-03-21T10:01:30.438Z,6.49
2023-03-21T10:03:56.792Z,6.69
2023-03-21T10:06:23.122Z,6.98
2023-03-21T10:08:49.451Z,6.51
2023-03-21T10:11:15.798Z,6.82
2023-03-21T10:13:42.129Z,6.92
2023-03-21T10:16:08.483Z,6.66
2023-03-21T10:18:34.863Z,7.16
2023-03-21T10:21:01.184Z,6.72
2023-03-21T10:23:27.516Z,6.86
2023-03-21T10:25:53.858Z,7.20
2023-03-21T10:28:20.180Z,7.14
2023-03-21T10:30:46.509Z,7.39
2023-03-21T10:33:12.857Z,7.19
2023-03-21T10:35:39.398Z,6.89
2023-03-21T10:38:05.996Z,6.57
2023-03-21T10:40:34.213Z,6.36
2023-03-21T10:43:01.325Z,6.45
2023-03-21T10:45:27.657Z,6.58
2023-03-21T10:47:54.166Z,6.76
2023-03-21T10:50:20.684Z,6.40
2023-03-21T10:52:47.060Z,6.48
2023-03-21T10:55:13.390Z,6.65
2023-03-21T10:57:39.701Z,6.53
2023-03-21T11:00:06.009Z,6.63
2023-03-21T11:02:32.362Z,6.80
2023-03-21T11:04:58.712Z,6.31
2023-03-21T11:07:25.048Z,6.38
2023-03-21T11:09:53.590Z,6.20
2023-03-21T11:12:20.107Z,6.64
2023-03-21T11:14:46.423Z,6.29
2023-03-21T11:17:12.733Z,6.21
2023-03-21T11:19:39.149Z,6.28
2023-03-21T11:22:05.677Z,5.86
2023-03-21T11:24:31.993Z,5.79
2023-03-21T11:26:58.320Z,5.62
2023-03-21T11:29:24.636Z,5.76
2023-03-21T11:31:50.953Z,5.89
2023-03-21T11:34:17.263Z,5.46
2023-03-21T11:36:43.580Z,5.44
2023-03-21T11:39:09.898Z,5.70
2023-03-21T11:41:36.228Z,6.02
2023-03-21T11:44:02.608Z,5.26
2023-03-21T11:46:29.036Z,5.09
2023-03-21T11:48:55.583Z,5.37
2023-03-21T11:51:21.927Z,5.47
2023-03-21T11:53:48.235Z,4.88
2023-03-21T11:56:14.546Z,5.06
2023-03-21T11:58:41.310Z,4.49
2023-03-21T12:01:08.423Z,4.57
2023-03-21T12:03:46.834Z,4.18
2023-03-21T12:06:14.254Z,4.45
2023-03-21T12:08:40.565Z,4.24
2023-03-21T12:11:06.884Z,4.05
2023-03-21T12:13:33.202Z,4.73
2023-03-21T12:15:59.522Z,3.90
2023-03-21T12:18:25.845Z,4.22
2023-03-21T12:20:52.151Z,3.32
2023-03-21T12:23:18.514Z,3.87
2023-03-21T12:25:44.834Z,3.65
2023-03-21T12:28:11.214Z,3.65
2023-03-21T12:30:37.546Z,3.07
2023-03-21T12:33:03.869Z,2.67
2023-03-21T12:35:30.182Z,2.51
2023-03-21T12:37:57.944Z,2.58
2023-03-21T12:40:24.366Z,2.47
2023-03-21T12:42:50.704Z,2.50
2023-03-21T12:45:17.015Z,2.08
2023-03-21T12:47:43.381Z,2.29
2023-03-21T12:50:09.731Z,2.25
2023-03-21T12:52:36.060Z,2.48
2023-03-21T12:55:02.405Z,2.10
2023-03-21T12:57:28.738Z,1.76
2023-03-21T12:59:55.070Z,1.96
2023-03-21T13:02:21.406Z,1.87
2023-03-21T13:04:47.730Z,2.29
2023-03-21T13:07:14.067Z,2.37
2023-03-21T13:09:40.403Z,2.22
2023-03-21T13:12:06.725Z,1.97
2023-03-21T13:14:33.058Z,2.01
2023-03-21T13:17:01.281Z,2.21
2023-03-21T13:19:27.789Z,2.25
2023-03-21T13:21:54.151Z,2.26
2023-03-21T13:24:20.510Z,2.32
2023-03-21T13:26:46.843Z,2.05
2023-03-21T13:29:13.170Z,2.08
2023-03-21T13:31:51.410Z,3.35
2023-03-21T13:34:18.210Z,2.43
2023-03-21T13:36:44.664Z,2.09
2023-03-21T13:39:10.994Z,2.13
2023-03-21T13:41:37.312Z,1.84
2023-03-21T13:44:03.690Z,1.68
2023-03-21T13:46:31.308Z,1.78
2023-03-21T13:49:02.216Z,1.80
2023-03-21T13:51:28.557Z,2.25
2023-03-21T13:53:54.870Z,1.40
2023-03-21T13:56:21.197Z,1.56
2023-03-21T13:58:47.514Z,1.55
2023-03-21T14:01:13.972Z,1.56
2023-03-21T14:03:40.309Z,1.66
2023-03-21T14:06:06.817Z,1.68
2023-03-21T14:08:37.393Z,1.77
2023-03-21T14:11:03.914Z,1.80
2023-03-21T14:13:33.070Z,2.00
2023-03-21T14:16:02.042Z,1.77
2023-03-21T14:18:52.241Z,1.78
2023-03-21T14:21:23.297Z,1.89
2023-03-21T14:23:50.296Z,1.68
2023-03-21T14:26:16.610Z,1.73
2023-03-21T14:28:42.924Z,1.58
2023-03-21T14:31:09.274Z,1.74
2023-03-21T14:33:35.597Z,2.00
2023-03-21T14:36:01.942Z,2.07
2023-03-21T14:38:28.309Z,2.25
2023-03-21T14:40:54.617Z,2.18
2023-03-21T14:43:20.944Z,2.02
2023-03-21T14:45:47.260Z,2.25
2023-03-21T14:48:13.648Z,2.63
2023-03-21T14:50:40.012Z,2.59
2023-03-21T14:53:06.329Z,2.64
2023-03-21T14:55:32.640Z,2.84
2023-03-21T14:57:58.963Z,3.04
2023-03-21T15:00:25.270Z,3.13
2023-03-21T15:02:51.639Z,2.96
2023-03-21T15:05:18.047Z,2.88
2023-03-21T15:07:44.401Z,2.98
2023-03-21T15:10:10.713Z,3.07
2023-03-21T15:12:37.017Z,3.27
2023-03-21T15:15:03.319Z,3.10
2023-03-21T15:17:29.656Z,3.41
2023-03-21T15:19:55.968Z,3.42
2023-03-21T15:22:22.272Z,3.11
2023-03-21T15:24:48.580Z,2.77
2023-03-21T15:27:14.895Z,2.84
2023-03-21T15:29:41.345Z,2.77
2023-03-21T15:32:07.690Z,2.82
2023-03-21T15:34:34.012Z,2.82
2023-03-21T15:37:00.350Z,2.85
2023-03-21T15:39:26.685Z,3.17
2023-03-21T15:41:53.029Z,3.04
2023-03-21T15:44:19.351Z,3.29
2023-03-21T15:46:45.775Z,3.30
2023-03-21T15:49:12.155Z,3.47
2023-03-21T15:51:38.504Z,3.51
2023-03-21T15:54:04.839Z,3.23
2023-03-21T15:56:31.142Z,3.33
2023-03-21T15:58:57.456Z,3.35
2023-03-21T16:01:23.893Z,3.24
2023-03-21T16:03:50.250Z,3.29
2023-03-21T16:06:16.575Z,3.70
2023-03-21T16:08:42.883Z,3.30
2023-03-21T16:11:09.216Z,3.52
2023-03-21T16:13:35.546Z,3.09
2023-03-21T16:16:01.947Z,3.01
2023-03-21T16:18:28.295Z,3.28
2023-03-21T16:20:54.597Z,2.91
2023-03-21T16:23:20.919Z,2.95
2023-03-21T16:25:47.246Z,3.32
2023-03-21T16:28:13.563Z,3.12
2023-03-21T16:30:40.084Z,2.87
2023-03-21T16:33:06.491Z,2.96
2023-03-21T16:35:32.850Z,2.85
2023-03-21T16:37:59.185Z,2.79
2023-03-21T16:40:25.510Z,2.82
2023-03-21T16:42:51.830Z,2.97
2023-03-21T16:45:18.163Z,3.34
2023-03-21T16:47:44.512Z,3.38
2023-03-21T16:50:10.826Z,3.36
2023-03-21T16:52:37.148Z,3.57
2023-03-21T16:55:03.462Z,3.27
2023-03-21T16:57:29.809Z,3.01
2023-03-21T16:59:56.146Z,2.82
2023-03-21T17:02:22.500Z,2.76
2023-03-21T17:04:48.841Z,3.08
2023-03-21T17:07:15.148Z,2.82
2023-03-21T17:09:41.477Z,3.13
2023-03-21T17:12:07.804Z,3.21
2023-03-21T17:14:34.114Z,3.27
2023-03-21T17:17:00.480Z,3.19
2023-03-21T17:19:26.858Z,3.09
2023-03-21T17:21:53.182Z,3.27
2023-03-21T17:24:19.504Z,3.55
2023-03-21T17:26:45.833Z,3.82
2023-03-21T17:29:12.158Z,3.68
2023-03-21T17:31:38.503Z,3.84
2023-03-21T17:34:04.834Z,4.14
2023-03-21T17:36:31.159Z,4.21
2023-03-21T17:38:57.488Z,4.09
2023-03-21T17:41:23.803Z,4.06
2023-03-21T17:43:50.136Z,3.99
2023-03-21T17:46:16.497Z,3.84
2023-03-21T17:48:42.850Z,4.25
2023-03-21T17:51:09.182Z,4.49
2023-03-21T17:53:35.515Z,4.22
2023-03-21T17:56:01.836Z,4.14
2023-03-21T17:58:28.152Z,4.17
2023-03-21T18:00:54.489Z,3.95
2023-03-21T18:03:20.822Z,4.10
2023-03-21T18:05:47.149Z,3.79
2023-03-21T18:08:13.460Z,3.88
2023-03-21T18:10:40.176Z,3.63
2023-03-21T18:13:06.759Z,3.92
2023-03-21T18:15:33.080Z,3.62
2023-03-21T18:17:59.414Z,3.52
2023-03-21T18:20:44.672Z,3.60
2023-03-21T18:23:12.049Z,3.51
2023-03-21T18:25:38.516Z,3.36
2023-03-21T18:28:11.443Z,3.00
2023-03-21T18:30:56.993Z,2.97
2023-03-21T18:33:24.709Z,2.99
2023-03-21T18:35:55.925Z,3.35
2023-03-21T18:38:24.925Z,3.23
2023-03-21T18:40:51.257Z,3.22
2023-03-21T18:43:59.327Z,3.41
2023-03-21T18:46:03.967Z,3.25
2023-03-21T18:48:33.011Z,3.03
2023-03-21T18:51:00.270Z,3.08
2023-03-21T18:53:26.604Z,2.98
2023-03-21T18:55:52.995Z,3.28
2023-03-21T18:58:19.361Z,3.18
2023-03-21T19:00:45.796Z,3.33
2023-03-21T19:03:21.807Z,3.25
2023-03-21T19:05:58.477Z,3.25
2023-03-21T19:08:24.804Z,3.61
2023-03-21T19:10:51.258Z,3.34
2023-03-21T19:13:17.600Z,3.36
2023-03-21T19:15:43.918Z,3.45
2023-03-21T19:20:56.504Z,3.49
2023-03-21T19:23:22.848Z,3.35
2023-03-21T19:25:49.173Z,3.63
2023-03-21T19:28:15.493Z,3.71
2023-03-21T19:30:49.853Z,3.52
2023-03-21T19:33:17.009Z,3.72
2023-03-21T19:35:43.401Z,3.61
2023-03-21T19:38:09.733Z,3.34
2023-03-21T19:40:36.357Z,3.21
2023-03-21T19:43:21.516Z,3.26
2023-03-21T19:45:49.140Z,3.04
2023-03-21T19:48:15.506Z,3.07
2023-03-21T19:51:03.430Z,2.76
2023-03-21T19:53:28.134Z,2.65
2023-03-21T19:55:54.557Z,2.50
2023-03-21T19:58:22.701Z,2.44
2023-03-21T20:00:49.128Z,2.57
2023-03-21T20:03:15.500Z,2.59
2023-03-21T20:05:41.886Z,2.42
2023-03-21T20:08:10.933Z,2.52
2023-03-21T20:10:37.774Z,3.24
2023-03-21T20:13:04.237Z,3.35
2023-03-21T20:15:30.787Z,3.20
2023-03-21T20:17:57.221Z,3.27
2023-03-21T20:20:23.552Z,3.05
2023-03-21T20:23:08.014Z,2.99
2023-03-21T20:25:34.795Z,2.75
2023-03-21T20:28:15.034Z,2.81
2023-03-21T20:30:42.468Z,3.03
2023-03-21T20:33:08.813Z,3.05
2023-03-21T20:36:19.755Z,3.27
2023-03-21T20:38:21.435Z,3.16
2023-03-21T20:40:47.761Z,3.26
2023-03-21T20:43:58.216Z,3.16
2023-03-21T20:46:00.377Z,2.97
2023-03-21T20:48:26.705Z,2.78
2023-03-21T20:50:57.839Z,2.75
2023-03-21T20:53:26.678Z,2.64
2023-03-21T20:55:53.018Z,2.54
2023-03-21T20:58:37.104Z,2.53
2023-03-21T21:01:05.631Z,2.43
2023-03-21T21:03:31.968Z,2.58
2023-03-21T21:05:58.307Z,2.67
2023-03-21T21:08:24.660Z,2.80
2023-03-21T21:11:36.121Z,3.27
2023-03-21T21:13:37.297Z,3.47
2023-03-21T21:16:03.638Z,3.66
2023-03-21T21:18:29.964Z,3.30
2023-03-21T21:20:56.275Z,3.40
2023-03-21T21:23:22.597Z,3.15
2023-03-21T21:25:48.905Z,3.27
2023-03-21T21:28:15.220Z,3.63
2023-03-21T21:30:42.002Z,3.81
2023-03-21T21:33:08.414Z,4.28
2023-03-21T21:35:34.751Z,4.49
2023-03-21T21:38:01.118Z,4.67
2023-03-21T21:40:27.449Z,4.57
2023-03-21T21:42:53.806Z,4.82
2023-03-21T21:45:20.191Z,4.70
2023-03-21T21:47:46.586Z,4.48
2023-03-21T21:50:12.949Z,4.13
2023-03-21T21:52:39.282Z,3.92
2023-03-21T21:55:05.629Z,3.71
2023-03-21T21:57:31.934Z,3.77
2023-03-21T21:59:58.241Z,3.66
2023-03-21T22:02:24.558Z,3.73
2023-03-21T22:04:50.909Z,3.64
2023-03-21T22:07:17.227Z,3.92
2023-03-21T22:09:43.545Z,4.16
2023-03-21T22:12:09.883Z,4.09
2023-03-21T22:14:36.211Z,3.98
2023-03-21T22:17:02.543Z,4.12
2023-03-21T22:19:28.867Z,3.98
2023-03-21T22:21:55.184Z,4.48
2023-03-21T22:24:21.531Z,4.80
2023-03-21T22:26:47.948Z,5.05
2023-03-21T22:29:14.297Z,4.76
2023-03-21T22:31:40.730Z,4.99
2023-03-21T22:34:07.092Z,5.01
2023-03-21T22:36:33.418Z,5.11
2023-03-21T22:38:59.752Z,5.19
2023-03-21T22:41:26.104Z,5.09
2023-03-21T22:43:52.457Z,4.59
2023-03-21T22:46:18.818Z,4.50
2023-03-21T22:48:45.194Z,4.41
2023-03-21T22:51:11.895Z,4.00
2023-03-21T22:53:38.222Z,3.67
2023-03-21T22:56:04.536Z,3.82
2023-03-21T22:58:30.880Z,3.70
2023-03-21T23:00:57.269Z,3.30
2023-03-21T23:03:23.597Z,3.52
2023-03-21T23:05:49.929Z,3.17
2023-03-21T23:08:16.278Z,2.96
2023-03-21T23:10:42.969Z,3.18
2023-03-21T23:13:09.456Z,2.81
2023-03-21T23:15:35.854Z,2.61
2023-03-21T23:18:02.266Z,2.65
2023-03-21T23:20:28.611Z,2.84
2023-03-21T23:22:54.940Z,2.96
2023-03-21T23:25:21.285Z,2.58
2023-03-21T23:27:47.620Z,2.78
2023-03-21T23:30:13.935Z,2.95
2023-03-21T23:32:40.254Z,2.54
2023-03-21T23:35:06.584Z,2.51
2023-03-21T23:37:32.895Z,2.57
2023-03-21T23:39:59.225Z,2.58
2023-03-21T23:42:25.563Z,2.68
2023-03-21T23:44:51.886Z,2.53
2023-03-21T23:47:18.213Z,2.66
2023-03-21T23:49:44.526Z,2.72
2023-03-21T23:52:10.845Z,2.91
2023-03-21T23:54:37.182Z,2.93
2023-03-21T23:57:03.502Z,3.05
2023-03-21T23:59:29.839Z,3.02
